Time;durP1;ratioP1;P1;durP2;ratioP2;P2;SDS_P1;SDS_P2;PMS_P1;PMS_P2;Temp;Humidity;BMP_temperature;BMP_pressure;BME280_temperature;BME280_humidity;BME280_pressure;Samples;Min_cycle;Max_cycle;Signal;HPM_P1;HPM_P2
2022/09/23 00:00:04;;;;;;;5.67;3.03;;;;;;;;;;5036071;28;20308;-69
2022/09/23 00:02:29;;;;;;;4.37;2.90;;;;;;;;;;5053803;28;20218;-69
2022/09/23 00:04:55;;;;;;;5.77;2.40;;;;;;;;;;5054479;28;20532;-69
2022/09/23 00:07:21;;;;;;;5.80;2.80;;;;;;;;;;5053560;28;20538;-69
2022/09/23 00:09:47;;;;;;;7.13;2.77;;;;;;;;;;5054368;28;20627;-69
2022/09/23 00:12:13;;;;;;;8.80;3.20;;;;;;;;;;5053862;28;20731;-69
2022/09/23 00:14:39;;;;;;;5.57;2.77;;;;;;;;;;5035780;28;20194;-69
2022/09/23 00:17:05;;;;;;;6.07;2.93;;;;;;;;;;5036103;28;20216;-70
2022/09/23 00:19:31;;;;;;;4.80;2.60;;;;;;;;;;5054097;28;20232;-69
2022/09/23 00:21:57;;;;;;;3.80;2.90;;;;;;;;;;5053297;28;20202;-69
2022/09/23 00:24:23;;;;;;;5.00;2.70;;;;;;;;;;5035501;28;20202;-69
2022/09/23 00:26:50;;;;;;;9.30;3.20;;;;;;;;;;5053377;28;20213;-69
2022/09/23 00:29:16;;;;;;;3.87;2.60;;;;;;;;;;5053900;28;20205;-69
2022/09/23 00:31:42;;;;;;;3.97;2.80;;;;;;;;;;5035296;28;20612;-68
2022/09/23 00:34:10;;;;;;;5.03;2.80;;;;;;;;;;5035435;28;20596;-70
2022/09/23 00:36:36;;;;;;;4.70;2.50;;;;;;;;;;5053478;28;20178;-70
2022/09/23 00:39:04;;;;;;;5.77;3.00;;;;;;;;;;5053253;28;20182;-69
2022/09/23 00:41:32;;;;;;;5.07;2.60;;;;;;;;;;5053120;28;20186;-69
2022/09/23 00:43:59;;;;;;;3.80;2.60;;;;;;;;;;5053063;28;20194;-69
2022/09/23 00:46:35;;;;;;;6.73;2.80;;;;;;;;;;5053135;28;20171;-69
2022/09/23 00:49:08;;;;;;;4.40;2.50;;;;;;;;;;5053442;28;20159;-69
2022/09/23 00:51:37;;;;;;;7.90;3.10;;;;;;;;;;5053271;28;20166;-69
2022/09/23 00:54:05;;;;;;;9.17;3.20;;;;;;;;;;5053031;28;20175;-70
2022/09/23 00:56:32;;;;;;;5.33;3.10;;;;;;;;;;5053063;28;20209;-69
2022/09/23 00:58:59;;;;;;;8.03;3.03;;;;;;;;;;5035283;28;20202;-69
2022/09/23 01:01:26;;;;;;;3.40;2.80;;;;;;;;;;5035216;28;20231;-69
2022/09/23 01:03:53;;;;;;;7.13;3.20;;;;;;;;;;5053205;28;20206;-69
2022/09/23 01:06:19;;;;;;;5.93;2.90;;;;;;;;;;5053288;28;20545;-69
2022/09/23 01:08:46;;;;;;;6.40;2.73;;;;;;;;;;5035137;28;20179;-69
2022/09/23 01:11:17;;;;;;;6.10;2.90;;;;;;;;;;5052998;28;20182;-69
2022/09/23 01:14:16;;;;;;;7.23;3.30;;;;;;;;;;5053330;28;20182;-69
2022/09/23 01:16:53;;;;;;;4.90;2.87;;;;;;;;;;5002974;28;20313;-69
2022/09/23 01:19:43;;;;;;;8.60;2.87;;;;;;;;;;5035650;28;20261;-69
2022/09/23 01:22:18;;;;;;;5.43;3.20;;;;;;;;;;5031444;28;20214;-69
2022/09/23 01:24:46;;;;;;;4.70;2.80;;;;;;;;;;5039355;28;20363;-70
2022/09/23 01:27:18;;;;;;;5.73;2.80;;;;;;;;;;5039271;28;20186;-69
2022/09/23 01:29:53;;;;;;;5.23;2.77;;;;;;;;;;5056992;28;20170;-69
2022/09/23 01:32:30;;;;;;;6.80;3.10;;;;;;;;;;5038822;28;20198;-69
2022/09/23 01:35:16;;;;;;;6.60;3.03;;;;;;;;;;5057142;28;20166;-69
2022/09/23 01:37:51;;;;;;;5.37;3.07;;;;;;;;;;5057070;28;20178;-69
2022/09/23 01:40:22;;;;;;;6.33;3.10;;;;;;;;;;5056771;28;20170;-69
2022/09/23 01:42:57;;;;;;;6.63;3.00;;;;;;;;;;5056775;28;20264;-69
2022/09/23 01:45:42;;;;;;;6.27;3.00;;;;;;;;;;5056463;28;20198;-69
2022/09/23 01:48:37;;;;;;;8.50;3.03;;;;;;;;;;5056513;28;20175;-69
2022/09/23 01:51:07;;;;;;;4.63;2.67;;;;;;;;;;5039327;28;20373;-69
2022/09/23 01:53:36;;;;;;;4.00;2.70;;;;;;;;;;5056399;28;20193;-69
2022/09/23 01:56:05;;;;;;;4.23;2.80;;;;;;;;;;5056411;28;20178;-69
2022/09/23 01:58:50;;;;;;;7.37;3.17;;;;;;;;;;5038574;28;20182;-69
2022/09/23 02:01:18;;;;;;;9.07;3.63;;;;;;;;;;5056266;28;20178;-69
2022/09/23 02:03:54;;;;;;;6.27;3.03;;;;;;;;;;5038395;28;20206;-69
2022/09/23 02:06:22;;;;;;;6.07;3.00;;;;;;;;;;5038372;28;20305;-69
2022/09/23 02:08:59;;;;;;;5.03;3.13;;;;;;;;;;5056103;28;20170;-70
2022/09/23 02:11:25;;;;;;;6.57;3.57;;;;;;;;;;5056107;28;20260;-69
2022/09/23 02:14:00;;;;;;;9.80;4.00;;;;;;;;;;5056253;28;20224;-70
2022/09/23 02:16:30;;;;;;;7.67;3.80;;;;;;;;;;5038259;28;20184;-69
2022/09/23 02:19:09;;;;;;;6.67;3.63;;;;;;;;;;5038040;28;20264;-69
2022/09/23 02:21:41;;;;;;;9.00;3.70;;;;;;;;;;5055929;28;20207;-68
2022/09/23 02:24:10;;;;;;;5.60;2.90;;;;;;;;;;5037983;28;20288;-68
2022/09/23 02:26:40;;;;;;;5.30;2.80;;;;;;;;;;5038061;28;20179;-67
2022/09/23 02:29:17;;;;;;;4.43;2.70;;;;;;;;;;5037908;28;20174;-66
2022/09/23 02:32:03;;;;;;;6.10;2.83;;;;;;;;;;5055570;28;20190;-68
2022/09/23 02:34:29;;;;;;;4.93;2.93;;;;;;;;;;5037684;28;20182;-68
2022/09/23 02:37:05;;;;;;;4.67;2.43;;;;;;;;;;5037817;28;20182;-67
2022/09/23 02:39:37;;;;;;;5.33;2.73;;;;;;;;;;5037688;28;20654;-67
2022/09/23 02:42:06;;;;;;;5.67;2.80;;;;;;;;;;5055725;28;20202;-69
2022/09/23 02:44:32;;;;;;;6.90;2.60;;;;;;;;;;5055426;28;20198;-69
2022/09/23 02:46:58;;;;;;;4.13;2.77;;;;;;;;;;5037391;28;20233;-69
2022/09/23 02:49:26;;;;;;;5.13;2.67;;;;;;;;;;5055631;28;20653;-69
2022/09/23 02:51:53;;;;;;;4.80;2.40;;;;;;;;;;5055264;28;20276;-69
2022/09/23 02:54:20;;;;;;;3.40;2.77;;;;;;;;;;5055772;28;20658;-69
2022/09/23 02:56:48;;;;;;;4.13;2.23;;;;;;;;;;5055679;28;20236;-70
2022/09/23 02:59:18;;;;;;;2.83;2.40;;;;;;;;;;5055421;28;20643;-70
2022/09/23 03:02:03;;;;;;;2.80;2.10;;;;;;;;;;5055276;28;20799;-69
2022/09/23 03:04:38;;;;;;;5.73;2.40;;;;;;;;;;5055294;28;20608;-69
2022/09/23 03:07:16;;;;;;;4.00;2.40;;;;;;;;;;5054987;28;20693;-69
2022/09/23 03:09:52;;;;;;;3.47;2.40;;;;;;;;;;5037002;28;20178;-69
2022/09/23 03:12:34;;;;;;;3.43;2.07;;;;;;;;;;5054828;28;20194;-69
2022/09/23 03:15:19;;;;;;;3.37;2.37;;;;;;;;;;5054945;28;20171;-70
2022/09/23 03:18:04;;;;;;;4.80;2.67;;;;;;;;;;5036923;28;20236;-69
2022/09/23 03:20:37;;;;;;;4.27;2.90;;;;;;;;;;5036896;28;20192;-69
2022/09/23 03:23:05;;;;;;;4.53;2.23;;;;;;;;;;5036828;28;20201;-69
2022/09/23 03:25:34;;;;;;;5.20;2.20;;;;;;;;;;5054601;28;20289;-70
2022/09/23 03:28:00;;;;;;;4.50;2.20;;;;;;;;;;5036743;28;20181;-69
2022/09/23 03:30:27;;;;;;;6.83;2.53;;;;;;;;;;5054585;28;20213;-69
2022/09/23 03:32:54;;;;;;;5.23;2.60;;;;;;;;;;5054530;28;20228;-69
2022/09/23 03:35:22;;;;;;;3.77;2.43;;;;;;;;;;5036592;28;20178;-69
2022/09/23 03:38:20;;;;;;;4.73;2.50;;;;;;;;;;5054428;28;20179;-69
2022/09/23 03:40:49;;;;;;;5.13;2.67;;;;;;;;;;5004450;28;20200;-69
2022/09/23 03:43:15;;;;;;;3.57;2.63;;;;;;;;;;5035774;28;20206;-69
2022/09/23 03:45:41;;;;;;;4.90;2.57;;;;;;;;;;5054505;28;20229;-69
2022/09/23 03:48:07;;;;;;;3.90;2.70;;;;;;;;;;5054511;28;20175;-69
2022/09/23 03:50:38;;;;;;;4.27;2.47;;;;;;;;;;5054305;28;20186;-69
2022/09/23 03:53:03;;;;;;;2.30;2.10;;;;;;;;;;5036408;28;20195;-69
2022/09/23 03:55:31;;;;;;;5.17;2.63;;;;;;;;;;5055005;28;20180;-70
2022/09/23 03:57:59;;;;;;;3.67;2.60;;;;;;;;;;5054655;28;20635;-69
2022/09/23 04:00:25;;;;;;;6.10;2.90;;;;;;;;;;5054809;28;20186;-69
2022/09/23 04:02:51;;;;;;;8.43;2.33;;;;;;;;;;5036351;28;20217;-69
2022/09/23 04:05:17;;;;;;;3.00;2.47;;;;;;;;;;5054606;28;20551;-70
2022/09/23 04:07:43;;;;;;;7.07;3.27;;;;;;;;;;5054606;28;20262;-70
2022/09/23 04:10:10;;;;;;;4.50;2.63;;;;;;;;;;5036179;28;20232;-69
2022/09/23 04:12:36;;;;;;;6.90;2.83;;;;;;;;;;5053877;28;20198;-69
2022/09/23 04:15:02;;;;;;;3.63;2.60;;;;;;;;;;5035870;28;20255;-71
2022/09/23 04:17:29;;;;;;;3.53;2.67;;;;;;;;;;5053988;28;20178;-70
2022/09/23 04:19:54;;;;;;;4.23;2.80;;;;;;;;;;5053910;28;20178;-70
2022/09/23 04:22:21;;;;;;;7.00;2.70;;;;;;;;;;5053636;28;20577;-69
2022/09/23 04:24:47;;;;;;;5.33;3.10;;;;;;;;;;5053998;28;20206;-69
2022/09/23 04:27:13;;;;;;;7.90;3.03;;;;;;;;;;5035681;28;20197;-69
2022/09/23 04:29:39;;;;;;;11.13;3.07;;;;;;;;;;5053443;28;20238;-69
2022/09/23 04:32:05;;;;;;;3.87;2.70;;;;;;;;;;5053627;28;20202;-69
2022/09/23 04:34:31;;;;;;;3.67;2.80;;;;;;;;;;5035595;28;20178;-69
2022/09/23 04:36:57;;;;;;;3.23;2.80;;;;;;;;;;5035616;28;20182;-69
2022/09/23 04:39:23;;;;;;;3.97;2.53;;;;;;;;;;5036034;28;20235;-69
2022/09/23 04:41:49;;;;;;;5.27;3.03;;;;;;;;;;5036266;28;20213;-69
2022/09/23 04:44:15;;;;;;;3.80;3.00;;;;;;;;;;5054008;28;20210;-69
2022/09/23 04:46:42;;;;;;;5.40;2.53;;;;;;;;;;5036235;28;20174;-69
2022/09/23 04:49:08;;;;;;;8.10;2.80;;;;;;;;;;5053353;28;20192;-69
2022/09/23 04:51:34;;;;;;;5.63;2.87;;;;;;;;;;5053160;28;20258;-69
2022/09/23 04:54:00;;;;;;;6.53;2.77;;;;;;;;;;5034300;28;20193;-70
2022/09/23 04:56:28;;;;;;;3.67;2.87;;;;;;;;;;5053639;28;20177;-70
2022/09/23 04:59:00;;;;;;;4.40;3.00;;;;;;;;;;5053386;28;20281;-69
2022/09/23 05:01:28;;;;;;;5.17;2.60;;;;;;;;;;5053123;28;20159;-69
2022/09/23 05:03:56;;;;;;;4.93;2.90;;;;;;;;;;5053306;28;20195;-69
2022/09/23 05:06:23;;;;;;;4.10;2.70;;;;;;;;;;5034993;28;20190;-70
2022/09/23 05:08:53;;;;;;;4.30;2.73;;;;;;;;;;5035183;28;20535;-70
2022/09/23 05:11:20;;;;;;;4.20;2.60;;;;;;;;;;5035025;28;20186;-69
2022/09/23 05:13:46;;;;;;;4.70;3.20;;;;;;;;;;5053108;28;20170;-70
2022/09/23 05:16:13;;;;;;;4.03;2.93;;;;;;;;;;5035059;28;20182;-70
2022/09/23 05:18:41;;;;;;;5.23;2.90;;;;;;;;;;5053041;28;20253;-69
2022/09/23 05:21:07;;;;;;;5.77;2.77;;;;;;;;;;5053022;28;20167;-69
2022/09/23 05:23:33;;;;;;;7.83;3.10;;;;;;;;;;5053150;28;20658;-69
2022/09/23 05:26:04;;;;;;;3.50;3.20;;;;;;;;;;5053586;28;20261;-69
2022/09/23 05:28:31;;;;;;;6.47;3.27;;;;;;;;;;5035294;28;20266;-71
2022/09/23 05:31:01;;;;;;;4.50;3.20;;;;;;;;;;5035010;28;20646;-70
2022/09/23 05:33:28;;;;;;;4.33;3.40;;;;;;;;;;5052760;28;20694;-69
2022/09/23 05:35:54;;;;;;;4.00;2.87;;;;;;;;;;5053002;28;20177;-70
2022/09/23 05:38:20;;;;;;;5.30;3.10;;;;;;;;;;5052593;28;20171;-69
2022/09/23 05:40:46;;;;;;;7.83;3.27;;;;;;;;;;5052923;28;20206;-69
2022/09/23 05:43:12;;;;;;;4.87;3.13;;;;;;;;;;5052582;28;20203;-69
2022/09/23 05:45:38;;;;;;;6.43;3.77;;;;;;;;;;5034767;28;20234;-70
2022/09/23 05:48:04;;;;;;;7.53;3.83;;;;;;;;;;5052846;28;20300;-69
2022/09/23 05:50:30;;;;;;;4.00;3.20;;;;;;;;;;5034847;28;20182;-70
2022/09/23 05:52:56;;;;;;;6.67;4.00;;;;;;;;;;5052744;28;20202;-70
2022/09/23 05:55:22;;;;;;;6.27;4.50;;;;;;;;;;5034797;28;20182;-70
2022/09/23 05:57:48;;;;;;;5.43;3.40;;;;;;;;;;5034782;28;20255;-70
2022/09/23 06:00:15;;;;;;;6.60;3.13;;;;;;;;;;5052604;28;20174;-69
2022/09/23 06:02:41;;;;;;;5.67;3.27;;;;;;;;;;5034339;28;20214;-69
2022/09/23 06:05:07;;;;;;;7.20;3.50;;;;;;;;;;5052582;28;20214;-70
2022/09/23 06:07:33;;;;;;;5.90;3.30;;;;;;;;;;5038200;28;20178;-69
2022/09/23 06:09:59;;;;;;;5.97;3.20;;;;;;;;;;5056055;28;20189;-70
2022/09/23 06:12:25;;;;;;;6.33;3.50;;;;;;;;;;5055926;28;20197;-70
2022/09/23 06:14:51;;;;;;;6.23;2.97;;;;;;;;;;5056066;28;20178;-69
2022/09/23 06:17:17;;;;;;;4.97;3.17;;;;;;;;;;5056503;28;20178;-69
2022/09/23 06:19:43;;;;;;;5.47;3.10;;;;;;;;;;5056114;28;20194;-69
2022/09/23 06:22:10;;;;;;;5.57;3.33;;;;;;;;;;5056287;28;20287;-69
2022/09/23 06:24:36;;;;;;;8.00;3.23;;;;;;;;;;5037892;28;20206;-69
2022/09/23 06:27:02;;;;;;;5.33;3.13;;;;;;;;;;5037818;28;20178;-69
2022/09/23 06:29:31;;;;;;;8.20;3.60;;;;;;;;;;5055814;28;20181;-71
2022/09/23 06:31:58;;;;;;;7.47;3.30;;;;;;;;;;5038657;28;20257;-69
2022/09/23 06:34:24;;;;;;;5.70;3.00;;;;;;;;;;5056215;28;20224;-69
2022/09/23 06:36:50;;;;;;;6.37;2.83;;;;;;;;;;5037707;28;20183;-70
2022/09/23 06:39:16;;;;;;;7.53;3.30;;;;;;;;;;5055692;28;20171;-70
2022/09/23 06:41:43;;;;;;;5.03;3.07;;;;;;;;;;5037608;28;20297;-69
2022/09/23 06:44:09;;;;;;;4.73;3.03;;;;;;;;;;5055518;28;20327;-70
2022/09/23 06:46:35;;;;;;;7.73;3.50;;;;;;;;;;5037617;28;20670;-70
2022/09/23 06:49:02;;;;;;;5.43;3.17;;;;;;;;;;5055407;28;20209;-69
2022/09/23 06:51:28;;;;;;;10.33;3.33;;;;;;;;;;5037734;28;20256;-69
2022/09/23 06:53:54;;;;;;;7.13;3.50;;;;;;;;;;5055328;28;20202;-70
2022/09/23 06:56:21;;;;;;;8.43;3.50;;;;;;;;;;5037419;28;20228;-70
2022/09/23 06:58:49;;;;;;;6.33;3.40;;;;;;;;;;5055176;28;20178;-69
2022/09/23 07:01:17;;;;;;;9.40;4.03;;;;;;;;;;5054935;28;20669;-68
2022/09/23 07:03:45;;;;;;;5.83;3.50;;;;;;;;;;5037125;28;20218;-69
2022/09/23 07:06:11;;;;;;;11.00;4.90;;;;;;;;;;5055098;28;20550;-70
2022/09/23 07:08:37;;;;;;;12.67;4.30;;;;;;;;;;5055006;28;20261;-70
2022/09/23 07:11:04;;;;;;;7.70;4.40;;;;;;;;;;5055543;28;20252;-69
2022/09/23 07:13:32;;;;;;;6.33;4.40;;;;;;;;;;5036987;28;20199;-69
2022/09/23 07:15:59;;;;;;;9.17;5.10;;;;;;;;;;5054911;28;20216;-70
2022/09/23 07:18:25;;;;;;;19.07;5.07;;;;;;;;;;5035910;28;20228;-70
2022/09/23 07:20:52;;;;;;;7.17;4.67;;;;;;;;;;5054728;28;20651;-70
2022/09/23 07:23:18;;;;;;;11.47;4.40;;;;;;;;;;5054828;28;20205;-70
2022/09/23 07:25:49;;;;;;;11.37;4.93;;;;;;;;;;5054601;28;20249;-70
2022/09/23 07:28:16;;;;;;;11.23;6.50;;;;;;;;;;5055174;28;20238;-70
2022/09/23 07:30:43;;;;;;;13.17;6.23;;;;;;;;;;5037186;28;20178;-69
2022/09/23 07:33:09;;;;;;;11.70;5.33;;;;;;;;;;5036757;28;20544;-70
2022/09/23 07:35:38;;;;;;;12.60;5.13;;;;;;;;;;5054609;28;20174;-69
2022/09/23 07:38:04;;;;;;;12.20;5.63;;;;;;;;;;5054618;28;20186;-70
2022/09/23 07:40:30;;;;;;;12.20;5.27;;;;;;;;;;5054608;28;20325;-70
2022/09/23 07:42:56;;;;;;;10.57;5.10;;;;;;;;;;5054749;28;20210;-70
2022/09/23 07:45:22;;;;;;;14.07;6.00;;;;;;;;;;5054429;28;20214;-70
2022/09/23 07:47:48;;;;;;;15.03;6.30;;;;;;;;;;5036608;28;20265;-70
2022/09/23 07:50:14;;;;;;;19.03;6.43;;;;;;;;;;5054878;28;20179;-70
2022/09/23 07:52:41;;;;;;;10.77;6.03;;;;;;;;;;5055089;28;20268;-70
2022/09/23 07:55:07;;;;;;;11.57;5.47;;;;;;;;;;5036574;28;20246;-70
2022/09/23 07:57:33;;;;;;;12.40;6.07;;;;;;;;;;5054211;28;20178;-69
2022/09/23 08:00:02;;;;;;;11.30;5.77;;;;;;;;;;5054110;28;20553;-70
2022/09/23 08:02:28;;;;;;;13.13;6.27;;;;;;;;;;5053889;28;20214;-70
2022/09/23 08:04:54;;;;;;;13.17;6.57;;;;;;;;;;5053955;28;20764;-70
2022/09/23 08:07:20;;;;;;;15.23;6.50;;;;;;;;;;5054005;28;20547;-70
2022/09/23 08:09:46;;;;;;;11.80;5.87;;;;;;;;;;5036232;28;20677;-70
2022/09/23 08:12:16;;;;;;;14.57;6.63;;;;;;;;;;5035901;28;20253;-70
2022/09/23 08:14:42;;;;;;;12.10;6.00;;;;;;;;;;5053710;28;20206;-70
2022/09/23 08:17:09;;;;;;;14.77;6.50;;;;;;;;;;5035806;28;20261;-70
2022/09/23 08:19:35;;;;;;;10.13;6.23;;;;;;;;;;5053599;28;20266;-69
2022/09/23 08:22:01;;;;;;;16.80;7.03;;;;;;;;;;5061158;22;20271;-65
2022/09/23 08:24:31;;;;;;;14.77;6.80;;;;;;;;;;5034101;28;20203;-65
2022/09/23 08:26:57;;;;;;;17.63;7.30;;;;;;;;;;5017123;28;20631;-66
2022/09/23 08:29:24;;;;;;;14.97;7.73;;;;;;;;;;5033990;28;20175;-66
2022/09/23 08:31:51;;;;;;;15.57;7.27;;;;;;;;;;5033714;28;20257;-66
2022/09/23 08:34:17;;;;;;;18.60;7.50;;;;;;;;;;5033748;28;20190;-66
2022/09/23 08:36:44;;;;;;;20.10;9.33;;;;;;;;;;5033583;28;20182;-67
2022/09/23 08:39:13;;;;;;;20.67;8.83;;;;;;;;;;5033808;28;20233;-66
2022/09/23 08:41:52;;;;;;;14.67;8.00;;;;;;;;;;5016045;28;20199;-65
2022/09/23 08:44:21;;;;;;;14.77;8.63;;;;;;;;;;5033888;28;20195;-66
2022/09/23 08:46:51;;;;;;;19.83;8.40;;;;;;;;;;5033711;28;20549;-67
2022/09/23 08:49:22;;;;;;;13.43;6.63;;;;;;;;;;5033594;28;20175;-66
2022/09/23 08:51:50;;;;;;;7.87;5.90;;;;;;;;;;5033787;28;20194;-65
2022/09/23 08:54:17;;;;;;;9.70;4.63;;;;;;;;;;5033305;28;20171;-65
2022/09/23 08:56:44;;;;;;;8.40;4.23;;;;;;;;;;5015749;28;20187;-65
2022/09/23 08:59:10;;;;;;;8.47;4.23;;;;;;;;;;5033387;28;20257;-65
2022/09/23 09:01:45;;;;;;;8.20;4.37;;;;;;;;;;5033632;28;20671;-66
2022/09/23 09:04:17;;;;;;;9.07;5.20;;;;;;;;;;5033466;28;20721;-65
2022/09/23 09:07:02;;;;;;;9.43;5.63;;;;;;;;;;5015915;28;20201;-66
2022/09/23 09:09:30;;;;;;;9.90;5.20;;;;;;;;;;5033344;28;20532;-65
2022/09/23 09:12:00;;;;;;;10.90;5.27;;;;;;;;;;5015579;28;20203;-66
2022/09/23 09:14:35;;;;;;;9.10;4.93;;;;;;;;;;5015896;28;20187;-66
2022/09/23 09:17:04;;;;;;;10.53;5.60;;;;;;;;;;5033624;28;20250;-67
2022/09/23 09:19:39;;;;;;;7.40;4.83;;;;;;;;;;5033926;28;20625;-67
2022/09/23 09:22:08;;;;;;;9.00;4.90;;;;;;;;;;5015512;28;20222;-67
2022/09/23 09:24:34;;;;;;;7.97;4.73;;;;;;;;;;5033807;28;20206;-67
2022/09/23 09:27:01;;;;;;;6.87;4.10;;;;;;;;;;5033574;28;20176;-67
2022/09/23 09:29:31;;;;;;;6.97;4.33;;;;;;;;;;5033617;28;20187;-67
2022/09/23 09:31:58;;;;;;;7.40;4.70;;;;;;;;;;5033608;28;20198;-67
2022/09/23 09:34:25;;;;;;;7.97;4.07;;;;;;;;;;5033636;28;20636;-67
2022/09/23 09:37:07;;;;;;;6.33;3.73;;;;;;;;;;5033254;28;20229;-67
2022/09/23 09:39:33;;;;;;;6.57;3.57;;;;;;;;;;5015438;28;20175;-66
2022/09/23 09:42:00;;;;;;;4.67;3.50;;;;;;;;;;5036104;28;20195;-66
2022/09/23 09:44:38;;;;;;;4.57;3.93;;;;;;;;;;5037480;28;20245;-66
2022/09/23 09:47:06;;;;;;;7.47;4.07;;;;;;;;;;5037397;28;20220;-67
2022/09/23 09:49:45;;;;;;;6.37;3.60;;;;;;;;;;5019708;28;20705;-67
2022/09/23 09:52:12;;;;;;;6.17;4.63;;;;;;;;;;5039241;28;20274;-67
2022/09/23 09:54:38;;;;;;;5.13;4.27;;;;;;;;;;5037763;28;20179;-67
2022/09/23 09:57:09;;;;;;;6.90;4.17;;;;;;;;;;5037341;28;20265;-67
2022/09/23 09:59:43;;;;;;;5.80;3.97;;;;;;;;;;5037022;28;20171;-65
2022/09/23 10:02:28;;;;;;;7.40;4.50;;;;;;;;;;5018874;28;20253;-66
2022/09/23 10:05:01;;;;;;;7.53;4.37;;;;;;;;;;5018786;28;20676;-67
2022/09/23 10:07:29;;;;;;;10.53;4.70;;;;;;;;;;5037315;28;20175;-66
2022/09/23 10:09:56;;;;;;;4.63;4.00;;;;;;;;;;5036426;28;20175;-65
2022/09/23 10:12:23;;;;;;;6.17;4.50;;;;;;;;;;5036686;28;20223;-65
2022/09/23 10:14:50;;;;;;;9.30;5.07;;;;;;;;;;5036374;28;20179;-66
2022/09/23 10:17:36;;;;;;;8.27;4.83;;;;;;;;;;5036371;28;20245;-65
2022/09/23 10:20:07;;;;;;;11.67;4.80;;;;;;;;;;5018508;28;20534;-67
2022/09/23 10:22:36;;;;;;;7.87;3.90;;;;;;;;;;5036208;28;20211;-67
2022/09/23 10:25:26;;;;;;;11.83;5.10;;;;;;;;;;5018352;28;20203;-66
2022/09/23 10:27:52;;;;;;;9.67;5.33;;;;;;;;;;5036911;28;20255;-65
2022/09/23 10:30:21;;;;;;;8.73;5.00;;;;;;;;;;5018441;28;20651;-66
2022/09/23 10:32:47;;;;;;;7.10;5.20;;;;;;;;;;5036032;28;20195;-66
2022/09/23 10:35:15;;;;;;;7.07;4.50;;;;;;;;;;5018107;28;20273;-66
2022/09/23 10:37:47;;;;;;;8.13;4.53;;;;;;;;;;5018199;28;20179;-66
2022/09/23 10:49:07;;;;;;;11.63;5.27;;;;;;;;;;5036479;28;20589;-66
2022/09/23 10:51:52;;;;;;;10.83;5.33;;;;;;;;;;5018047;28;20195;-65
2022/09/23 10:54:29;;;;;;;8.37;4.93;;;;;;;;;;5017926;28;20185;-66
2022/09/23 10:56:58;;;;;;;9.30;5.10;;;;;;;;;;5035711;28;20202;-67
2022/09/23 10:59:30;;;;;;;7.00;4.83;;;;;;;;;;5035968;28;20653;-67
2022/09/23 11:02:14;;;;;;;7.37;5.17;;;;;;;;;;5035537;28;20675;-66
2022/09/23 11:04:46;;;;;;;10.03;5.00;;;;;;;;;;5035927;28;20209;-67
2022/09/23 11:07:16;;;;;;;11.93;4.57;;;;;;;;;;5017666;28;20179;-66
2022/09/23 11:09:45;;;;;;;6.53;4.33;;;;;;;;;;5035595;28;20266;-66
2022/09/23 11:12:23;;;;;;;13.93;5.13;;;;;;;;;;5017525;28;20290;-66
2022/09/23 11:15:08;;;;;;;13.57;5.20;;;;;;;;;;5035601;28;20596;-65
2022/09/23 11:17:42;;;;;;;8.33;4.90;;;;;;;;;;5017884;28;20182;-66
2022/09/23 11:20:31;;;;;;;7.60;4.27;;;;;;;;;;5017627;28;20182;-66
2022/09/23 11:23:17;;;;;;;7.47;4.27;;;;;;;;;;5017467;28;20314;-66
2022/09/23 11:25:46;;;;;;;9.33;4.40;;;;;;;;;;5017437;28;20249;-65
2022/09/23 11:28:31;;;;;;;6.30;4.20;;;;;;;;;;5017496;28;20218;-66
2022/09/23 11:31:00;;;;;;;7.10;4.87;;;;;;;;;;5017228;28;20179;-66
2022/09/23 11:33:32;;;;;;;8.30;4.47;;;;;;;;;;5034842;28;20654;-66
2022/09/23 11:36:01;;;;;;;11.83;4.97;;;;;;;;;;5035361;28;20197;-65
2022/09/23 11:38:30;;;;;;;10.33;4.10;;;;;;;;;;5017113;28;20211;-67
2022/09/23 11:40:59;;;;;;;8.30;4.07;;;;;;;;;;5034707;28;20171;-66
2022/09/23 11:43:32;;;;;;;10.03;4.07;;;;;;;;;;5035259;28;20531;-66
2022/09/23 11:46:02;;;;;;;10.83;4.23;;;;;;;;;;5035110;28;20159;-66
2022/09/23 11:48:37;;;;;;;5.40;3.73;;;;;;;;;;5034957;28;20175;-66
2022/09/23 11:51:11;;;;;;;6.37;3.77;;;;;;;;;;5034896;28;20166;-66
2022/09/23 11:53:40;;;;;;;4.70;3.13;;;;;;;;;;5035136;28;20163;-67
2022/09/23 11:56:20;;;;;;;4.47;3.60;;;;;;;;;;5034787;28;20246;-67
2022/09/23 11:59:03;;;;;;;5.47;3.07;;;;;;;;;;5034764;28;20166;-66
2022/09/23 12:01:34;;;;;;;5.83;3.20;;;;;;;;;;5016771;28;20567;-66
2022/09/23 12:04:14;;;;;;;5.87;3.07;;;;;;;;;;5033931;28;20195;-66
2022/09/23 12:06:45;;;;;;;3.67;2.87;;;;;;;;;;5034890;28;20182;-66
2022/09/23 12:09:23;;;;;;;8.40;3.37;;;;;;;;;;5016682;28;20183;-67
2022/09/23 12:12:00;;;;;;;11.03;3.43;;;;;;;;;;5034672;28;20290;-66
2022/09/23 12:14:37;;;;;;;8.80;3.40;;;;;;;;;;5016905;28;20209;-65
2022/09/23 12:17:26;;;;;;;6.77;2.70;;;;;;;;;;5016979;28;20210;-66
2022/09/23 12:19:55;;;;;;;4.27;2.70;;;;;;;;;;4972964;28;20566;-66
2022/09/23 12:22:35;;;;;;;3.97;3.00;;;;;;;;;;5034482;28;20229;-65
2022/09/23 12:25:20;;;;;;;3.57;2.70;;;;;;;;;;5016766;28;20601;-65
2022/09/23 12:27:49;;;;;;;5.93;2.63;;;;;;;;;;5017199;28;20183;-66
2022/09/23 12:30:19;;;;;;;5.30;3.10;;;;;;;;;;5034238;28;20254;-65
2022/09/23 12:32:45;;;;;;;7.07;2.90;;;;;;;;;;5016608;28;20199;-67
2022/09/23 12:35:23;;;;;;;4.03;2.90;;;;;;;;;;5016354;28;20672;-67
2022/09/23 12:37:49;;;;;;;5.77;3.33;;;;;;;;;;5033915;28;20250;-66
2022/09/23 12:40:21;;;;;;;5.13;2.83;;;;;;;;;;5016536;28;20183;-67
2022/09/23 12:42:48;;;;;;;7.43;2.80;;;;;;;;;;5034235;28;20679;-68
2022/09/23 12:45:33;;;;;;;8.13;3.30;;;;;;;;;;5034251;28;20206;-67
2022/09/23 12:48:17;;;;;;;8.23;3.83;;;;;;;;;;5034953;28;20155;-66
2022/09/23 12:50:46;;;;;;;6.87;3.20;;;;;;;;;;5035308;28;20197;-68
2022/09/23 12:53:31;;;;;;;4.57;2.80;;;;;;;;;;5017377;28;20203;-67
2022/09/23 12:55:58;;;;;;;3.93;2.93;;;;;;;;;;5017775;28;20632;-66
2022/09/23 12:58:37;;;;;;;4.47;3.00;;;;;;;;;;5017005;28;20236;-66
2022/09/23 13:01:07;;;;;;;5.40;3.03;;;;;;;;;;5016017;28;20182;-67
2022/09/23 13:09:03;;;;;;;4.80;3.33;;;;;;;;;;5034442;28;20174;-67
2022/09/23 13:11:30;;;;;;;4.10;3.30;;;;;;;;;;5034099;28;20279;-66
2022/09/23 13:13:58;;;;;;;4.77;3.00;;;;;;;;;;5033322;28;20183;-66
2022/09/23 13:16:24;;;;;;;4.43;3.13;;;;;;;;;;5035881;28;20224;-67
2022/09/23 13:18:54;;;;;;;4.70;3.30;;;;;;;;;;5019741;28;20175;-66
2022/09/23 13:21:39;;;;;;;5.90;3.60;;;;;;;;;;5037338;28;20198;-67
2022/09/23 13:24:18;;;;;;;5.20;3.60;;;;;;;;;;5037640;28;20194;-67
2022/09/23 13:26:49;;;;;;;6.60;4.33;;;;;;;;;;5037428;28;20206;-67
2022/09/23 13:29:27;;;;;;;8.00;4.33;;;;;;;;;;5019693;28;20164;-66
2022/09/23 13:31:55;;;;;;;8.60;3.47;;;;;;;;;;5037650;28;20266;-67
2022/09/23 13:34:23;;;;;;;5.60;3.60;;;;;;;;;;5019660;28;20171;-67
2022/09/23 13:36:49;;;;;;;5.67;3.37;;;;;;;;;;5020238;28;20548;-67
2022/09/23 13:39:23;;;;;;;8.57;4.10;;;;;;;;;;5037795;28;20175;-67
2022/09/23 13:41:51;;;;;;;5.97;3.80;;;;;;;;;;5019780;28;20199;-66
2022/09/23 13:44:19;;;;;;;5.80;3.33;;;;;;;;;;5037266;28;20203;-67
2022/09/23 13:46:47;;;;;;;5.17;3.53;;;;;;;;;;5036950;28;20179;-67
2022/09/23 13:49:23;;;;;;;7.40;3.67;;;;;;;;;;5037411;28;20186;-67
2022/09/23 13:51:50;;;;;;;4.17;3.30;;;;;;;;;;5037395;28;20269;-67
2022/09/23 13:54:27;;;;;;;4.30;2.83;;;;;;;;;;5018981;28;20194;-66
2022/09/23 13:56:54;;;;;;;4.83;3.13;;;;;;;;;;5037395;28;20233;-67
2022/09/23 13:59:30;;;;;;;4.80;3.23;;;;;;;;;;5019547;28;20183;-66
2022/09/23 14:02:15;;;;;;;6.53;3.37;;;;;;;;;;5037602;28;20262;-67
2022/09/23 14:04:41;;;;;;;5.83;3.07;;;;;;;;;;5019459;28;20356;-67
2022/09/23 14:07:09;;;;;;;5.87;2.97;;;;;;;;;;5037543;28;20182;-67
2022/09/23 14:09:36;;;;;;;3.53;2.90;;;;;;;;;;5037431;28;20177;-66
2022/09/23 14:12:04;;;;;;;6.40;3.27;;;;;;;;;;5037099;28;20569;-66
2022/09/23 14:14:30;;;;;;;7.27;2.73;;;;;;;;;;5036724;28;20186;-66
2022/09/23 14:16:57;;;;;;;4.70;2.70;;;;;;;;;;5036396;28;20179;-67
2022/09/23 14:19:23;;;;;;;4.10;2.87;;;;;;;;;;5036492;28;20186;-67
2022/09/23 14:21:51;;;;;;;6.20;2.83;;;;;;;;;;5018748;28;20273;-67
2022/09/23 14:24:23;;;;;;;4.47;2.67;;;;;;;;;;5036266;28;20195;-65
2022/09/23 14:26:52;;;;;;;4.97;3.10;;;;;;;;;;5017938;28;20182;-65
2022/09/23 14:29:19;;;;;;;3.77;2.50;;;;;;;;;;5018448;28;20582;-65
2022/09/23 14:31:55;;;;;;;5.27;2.93;;;;;;;;;;5018162;28;20194;-64
2022/09/23 14:34:40;;;;;;;5.23;2.53;;;;;;;;;;5036247;28;20220;-66
2022/09/23 14:40:00;;;;;;;3.47;2.70;;;;;;;;;;5035892;28;20274;-67
2022/09/23 14:42:26;;;;;;;6.00;2.80;;;;;;;;;;5017910;28;20294;-67
2022/09/23 14:44:52;;;;;;;4.23;2.70;;;;;;;;;;5018108;28;20199;-67
2022/09/23 14:47:18;;;;;;;4.40;2.40;;;;;;;;;;5018045;28;20190;-67
2022/09/23 14:50:35;;;;;;;4.80;2.37;;;;;;;;;;5035644;28;20211;-67
2022/09/23 14:52:35;;;;;;;3.80;2.33;;;;;;;;;;5035391;28;20249;-67
2022/09/23 14:55:01;;;;;;;2.97;2.10;;;;;;;;;;5035538;28;20204;-67
2022/09/23 14:57:28;;;;;;;4.83;2.33;;;;;;;;;;5035910;28;20186;-67
2022/09/23 15:00:15;;;;;;;4.33;2.90;;;;;;;;;;5035315;28;20647;-67
2022/09/23 15:02:43;;;;;;;5.93;2.03;;;;;;;;;;5035368;28;20547;-67
2022/09/23 15:05:17;;;;;;;4.07;2.30;;;;;;;;;;5035710;28;20226;-65
2022/09/23 15:07:43;;;;;;;3.50;2.27;;;;;;;;;;5017424;28;20221;-64
2022/09/23 15:10:16;;;;;;;4.93;2.10;;;;;;;;;;5035386;28;20217;-67
2022/09/23 15:12:44;;;;;;;2.83;2.17;;;;;;;;;;5035562;28;20206;-65
2022/09/23 15:15:12;;;;;;;3.73;2.43;;;;;;;;;;5035528;28;20183;-65